Tiempo atmosférico en la estación meteorológica de Bossòst, Lleida (725 m.)

Fecha
DESCASC
Temp. máxima en grados centígrados (hora)
DESCASC
Temp. mínima en grados centígrados (hora)
DESCASC
Temp. media en grados centígrados
DESCASC
Racha de viento máxima en m/sg (hora)
DESCASC
Velocidad máxima media en intervalos de 10 minutos(hora)
DESCASC
Precipitaciones diarias en mm
DESCASC
Precipitaciones de 00:00 a 06:00 en mm
DESCASC
Precipitaciones de 06:00 a 12:00 en mm
DESCASC
Precipitaciones de 12:00 a 18:00 en mm
DESCASC
Precipitaciones de 18:00 a 24:00 en mm
DESCASC
23-11-2017 21.4 (14:10) 2.6 (01:10) 12 10.28 (03:00) 6.39 (03:10) 0 0 0 0 0
22-11-2017 19.1 (14:00) -0.9 (03:50) 9.1 11.39 (21:50) 5 (21:50) 0 0 0 0 0
21-11-2017 17.6 (14:20) 1.6 (23:50) 9.6 5.83 (01:50) 4.72 (19:20) 0 0 0 0 0
20-11-2017 16.9 (14:30) -1.4 (04:00) 7.7 5.56 (00:10) 3.89 (19:30) 0 0 0 0 0
19-11-2017 13.3 (14:20) -3.5 (-00:0) 4.9 6.67 (21:40) 4.72 (21:40) 0 0 0 0 0
18-11-2017 13.4 (14:20) -0.9 (-00:0) 6.2 5.56 (15:00) 3.89 (20:30) 0 0 0 0 0
17-11-2017 16 (14:20) 0.4 (00:00) 8.2 6.39 (05:40) 3.61 (05:40) 0 0 0 0 0
16-11-2017 16.9 (14:30) 0.7 (00:00) 8.8 6.11 (04:00) 3.33 (02:00) 0 0 0 0 0
15-11-2017 14.2 (14:20) -3.9 (-00:0) 5.1 5.28 (05:20) 3.33 (05:20) 0 0 0 0 0
14-11-2017 9 (14:20) -3 (-00:0) 3 4.44 (07:00) 2.78 (23:00) 0 0 0 0 0
13-11-2017 8.1 (00:00) -1 (-00:0) 3.6 11.39 (01:10) 6.11 (01:20) 1.6 1.6 0 0 0
12-11-2017 15.9 (14:10) 4.3 (00:00) 10.1 8.89 (23:50) 5 (23:59) 1.2 0 0 0.2 1
11-11-2017 9.9 (14:00) 4 (00:00) 6.9 6.67 (15:00) 5 (15:00) 3.2 2.4 0.8 0 0
10-11-2017 6.2 (15:20) -0.2 (00:00) 3 6.39 (13:40) 5 (13:20) 1.6 0 0 0 1.6
09-11-2017 2.2 (01:00) -0.1 (00:00) 1.1 1.67 (14:40) 1.11 (12:30) 33.6 6.8 10.2 12.4 4.2
08-11-2017 5.4 (16:00) -2.5 (-00:0) 1.5 8.33 (01:40) 5.28 (01:40) 3.2 0 2.4 0.8 0
07-11-2017 9.6 (14:30) -2.7 (-00:0) 3.5 7.5 (06:20) 4.17 (05:50) 0 0 0 0 0
06-11-2017 7.3 (13:30) -0.6 (-00:0) 3.4 9.17 (09:20) 4.17 (06:00) 2.4 2.4 0 0 0
05-11-2017 9.9 (00:00) 2.4 (00:00) 6.1 8.89 (17:50) 4.17 (05:30) 22 9.4 0.8 1.4 10.4
04-11-2017 14.7 (15:20) 7.3 (00:00) 11 8.61 (12:30) 5.83 (12:30) 11.4 0 3.6 0.8 7
03-11-2017 24.6 (13:30) 3.5 (00:00) 14.1 11.39 (14:10) 6.39 (14:10) 0 0 0 0 0
02-11-2017 18.8 (15:00) 3.1 (03:50) 10.9 4.72 (05:10) 3.61 (06:00) 0 0 0 0 0
01-11-2017 20.8 (14:20) 0.8 (00:00) 10.8 4.72 (15:10) 2.78 (15:10) 0 0 0 0 0
31-10-2017 15 (14:20) -0.1 (00:00) 7.4 5.56 (08:20) 3.06 (14:40) 0 0 0 0 0
30-10-2017 15.2 (13:10) 5.4 (00:00) 10.3 6.67 (15:00) 3.89 (14:00) 0 0 0 0 0
29-10-2017 14.7 (14:30) 0.7 (00:00) 7.7 7.22 (04:10) 4.72 (04:30) 0 0 0 0 0
28-10-2017 16.6 (14:30) 7.3 (00:00) 12 7.22 (15:50) 3.89 (15:00) 0 0 0 0 0
27-10-2017 18 (14:40) 6.1 (00:00) 12 9.44 (15:50) 4.72 (14:50) 0 0 0 0 0
26-10-2017 27.1 (15:20) 8.1 (00:00) 17.6 6.39 (01:20) 4.17 (03:10) 0 0 0 0 0

Gráficas

Temp. máximas Temp. mínimas Temp. medias Precipitaciones Rachas de viento máximas Velocidades máximas media en intervalos de 10 minutos

Datos horarios

Fecha y hora oficial Temperatura (ºC) Velocidad del viento (km/h) Dirección del viento Racha (km/h) Dirección de racha Precipitación (mm) Presión (hPa) Tendencia (hPa) Humedad (%)
2017-11-24 23:00:00 5.8 3 Sur 7 Oeste 0 -- -- 86
2017-11-24 22:00:00 6.5 2 Sudeste 9 Sudoeste 0 -- -- 84
2017-11-24 21:00:00 7.8 10 Sudoeste 15 Sudoeste 0 -- -- 80
2017-11-24 20:00:00 8.3 3 Nordeste 8 Sur 0 -- -- 78
2017-11-24 19:00:00 9 0 Calma 8 Sudoeste 0 -- -- 75
2017-11-24 18:00:00 11.8 0 Calma 11 Nordeste 0 -- -- 65
2017-11-24 17:00:00 14.7 4 Nordeste 15 Este 0 -- -- 54
2017-11-24 16:00:00 16.4 5 Nordeste 21 Norte 0 -- -- 47
2017-11-24 15:00:00 17.2 7 Nordeste 14 Norte 0 -- -- 46
2017-11-24 14:00:00 18.1 5 Nordeste 18 Nordeste 0 -- -- 42
2017-11-24 13:00:00 18.2 9 Nordeste 21 Sudoeste 0 -- -- 42
2017-11-24 12:00:00 17.8 16 Sudoeste 27 Sudoeste 0 -- -- 41
2017-11-24 11:00:00 15.1 14 Sudoeste 25 Sudoeste 0 -- -- 47
2017-11-24 10:00:00 9.6 3 Sur 10 Sur 0 -- -- 72
2017-11-24 09:00:00 9.6 0 Calma 9 Norte 0 -- -- 71
2017-11-24 08:00:00 10.9 4 Sur 19 Sudeste 0 -- -- 62
2017-11-24 07:00:00 13.3 13 Sur 22 Sur 0 -- -- 49
2017-11-24 06:00:00 13.8 14 Sur 32 Sudoeste 0 -- -- 47
2017-11-24 05:00:00 12.7 19 Sudoeste 34 Sudoeste 0 -- -- 50
2017-11-24 04:00:00 13.1 17 Sur 34 Sur 0 -- -- 47
2017-11-24 03:00:00 12.7 14 Sur 36 Sudoeste -- -- -- 46
2017-11-24 02:00:00 12.4 19 Sudoeste 33 Sudoeste 0 -- -- 46
2017-11-24 01:00:00 12.6 17 Sur 36 Sudoeste 0 -- -- 44
2017-11-24 00:00:00 12.3 17 Sur 28 Sur 0 -- -- 46
2017-11-23 23:00:00 9.1 8 Sudoeste 22 Sur 0 -- -- 57
2017-11-23 22:00:00 3.7 2 Sudoeste 9 Oeste 0 -- -- 84
2017-11-23 21:00:00 3.8 2 Sudoeste 8 Noroeste 0 -- -- 83
2017-11-23 20:00:00 5 2 Sudoeste 10 Sudoeste 0 -- -- 80
2017-11-23 19:00:00 7.6 8 Sur 17 Sudoeste 0 -- -- 72
2017-11-23 18:00:00 8.5 7 Sur 16 Sudoeste 0 -- -- 70
2017-11-23 17:00:00 9.5 3 Sur 10 Sudoeste 0 -- -- 67
2017-11-23 16:00:00 11.6 5 Sur 12 Sudoeste 0 -- -- 61
2017-11-23 15:00:00 17.5 4 Sur 20 Oeste 0 -- -- 43
2017-11-23 14:00:00 21.3 12 Sudoeste 26 Sudoeste 0 -- -- 29
2017-11-23 13:00:00 20.6 8 Sudoeste 16 Sur 0 -- -- 31
2017-11-23 12:00:00 16.9 8 Sur 21 Sudoeste 0 -- -- 41
2017-11-23 11:00:00 11.8 2 Sur 10 Norte 0 -- -- 60
2017-11-23 10:00:00 12 2 Este 23 Sudoeste 0 -- -- 48
2017-11-23 09:00:00 10.2 16 Sudoeste 25 Sudoeste 0 -- -- 50
2017-11-23 08:00:00 6.7 3 Nordeste 13 Sur 0 -- -- 64
2017-11-23 07:00:00 7.3 6 Sur 15 Sudoeste 0 -- -- 55
2017-11-23 06:00:00 9.2 2 Sudeste 24 Sudoeste 0 -- -- 49
2017-11-23 05:00:00 11.6 17 Sudoeste 33 Sudoeste 0 -- -- 36
2017-11-23 04:00:00 11 17 Sudoeste 33 Sudoeste 0 -- -- 36
2017-11-23 03:00:00 11 22 Sudoeste 37 Sur 0 -- -- 35
2017-11-23 02:00:00 8.4 19 Sudoeste 29 Sudoeste 0 -- -- 41
2017-11-23 01:00:00 3 3 Sur 9 Sur 0 -- -- 71
2017-11-23 00:00:00 4.7 3 Sudoeste 10 Oeste 0 -- -- 62
2017-11-22 23:00:00 7.5 6 Norte 15 Sudoeste 0 -- -- 51
2017-11-22 22:00:00 11.9 12 Sudoeste 41 Sudoeste 0 -- -- 35
2017-11-22 21:00:00 11.2 17 Oeste 31 Sudoeste 0 -- -- 37
2017-11-22 20:00:00 10.3 8 Sudoeste 33 Sudeste 0 -- -- 43
2017-11-22 19:00:00 6.2 3 Sur 13 Sudoeste 0 -- -- 61
2017-11-22 18:00:00 7.7 6 Sur 20 Sudoeste 0 -- -- 59
2017-11-22 17:00:00 9.3 9 Sur 18 Sudoeste 0 -- -- 53
2017-11-22 16:00:00 9.3 4 Sudoeste 12 Sudoeste 0 -- -- 56
2017-11-22 15:00:00 13.6 4 Sur 14 Nordeste 0 -- -- 46
2017-11-22 14:00:00 19.1 3 Sur 5 Sur 0 -- -- 29
2017-11-22 13:00:00 16.3 0 Calma 5 Sudeste 0 -- -- 37
2017-11-22 12:00:00 11.3 0 Calma 4 Sur 0 -- -- 45
2017-11-22 11:00:00 2.6 2 Sur 4 Norte 0 -- -- 79
2017-11-22 10:00:00 2.8 3 Nordeste 15 Sur 0 -- -- 72
2017-11-22 09:00:00 2.6 4 Sur 17 Sudoeste 0 -- -- 72
2017-11-22 08:00:00 2.9 8 Sur 16 Sudoeste 0 -- -- 70
2017-11-22 07:00:00 2.4 8 Sur 14 Sudoeste 0 -- -- 74
2017-11-22 06:00:00 1.3 3 Nordeste 12 Sur 0 -- -- 78
2017-11-22 05:00:00 -0.5 3 Sudoeste 8 Sudeste 0 -- -- 86
2017-11-22 04:00:00 -0.5 6 Sur 14 Sur 0 -- -- 87
2017-11-22 03:00:00 -0.8 3 Sur 8 Norte 0 -- -- 87
2017-11-22 02:00:00 -0.4 4 Sur 9 Sudoeste 0 -- -- 86
2017-11-22 01:00:00 0.4 3 Sudoeste 8 Sur 0 -- -- 81
2017-11-22 00:00:00 1.6 3 Nordeste 10 Sur 0 -- -- 77
2017-11-21 23:00:00 2.6 3 Nordeste 17 Sur 0 -- -- 71
2017-11-21 22:00:00 3.7 5 Sudoeste 17 Sur 0 -- -- 67
2017-11-21 21:00:00 4.8 13 Sur 19 Sudoeste 0 -- -- 63
2017-11-21 20:00:00 5.1 12 Sur 20 Sudoeste 0 -- -- 65
2017-11-21 19:00:00 5.2 14 Sudoeste 20 Sudoeste 0 -- -- 70
2017-11-21 18:00:00 6.6 12 Sur 18 Sudoeste 0 -- -- 68
2017-11-21 17:00:00 7.2 9 Sur 15 Sudoeste 0 -- -- 68
2017-11-21 16:00:00 8 4 Sur 10 Sudoeste 0 -- -- 67
2017-11-21 15:00:00 12.3 5 Sudoeste 12 Sudoeste 0 -- -- 53
2017-11-21 14:00:00 17.1 3 Nordeste 5 Norte 0 -- -- 35
2017-11-21 13:00:00 15 0 Calma 3 Noroeste 0 -- -- 47
2017-11-21 12:00:00 10.4 0 Calma 4 Sur 0 -- -- 61
2017-11-21 11:00:00 2.1 0 Calma 4 Sur 0 -- -- 88
2017-11-21 10:00:00 2.6 0 Calma 17 Sudoeste 0 -- -- 80
2017-11-21 09:00:00 2.5 13 Sur 18 Sudoeste 0 -- -- 79
2017-11-21 08:00:00 2.4 10 Sur 18 Sudoeste 0 -- -- 80
2017-11-21 07:00:00 2 9 Sudoeste 16 Sudoeste 0 -- -- 82
2017-11-21 06:00:00 2.9 11 Sur 17 Sudoeste 0 -- -- 79
2017-11-21 05:00:00 3 10 Sur 17 Sudoeste 0 -- -- 79
2017-11-21 04:00:00 2.5 5 Sudoeste 17 Sudoeste 0 -- -- 82
2017-11-21 03:00:00 3.5 11 Sur 21 Sur 0 -- -- 79
2017-11-21 02:00:00 3.8 10 Sur 21 Sudoeste 0 -- -- 78
2017-11-21 01:00:00 3.7 10 Sur 18 Sudoeste 0 -- -- 81
2017-11-21 00:00:00 3.7 11 Sur 18 Sudoeste 0 -- -- 81
2017-11-20 23:00:00 4.1 9 Sur 17 Sudoeste 0 -- -- 81
2017-11-20 22:00:00 4.3 12 Sur 19 Sudoeste 0 -- -- 81
2017-11-20 21:00:00 4.5 12 Sudoeste 17 Sudoeste 0 -- -- 82
2017-11-20 20:00:00 5.4 9 Sur 18 Sur 0 -- -- 80
2017-11-20 19:00:00 5.7 9 Sur 17 Sudoeste 0 -- -- 81
2017-11-20 18:00:00 6.3 6 Sur 13 Sudoeste 0 -- -- 81
2017-11-20 17:00:00 7.3 5 Sur 10 Sudoeste 0 -- -- 77
2017-11-20 16:00:00 8.4 6 Sudoeste 9 Sudoeste 0 -- -- 74
2017-11-20 15:00:00 12.7 3 Sudoeste 8 Nordeste 0 -- -- 58
2017-11-20 14:00:00 16.5 3 Nordeste 5 Nordeste 0 -- -- 43
2017-11-20 13:00:00 14.7 3 Nordeste 5 Nordeste 0 -- -- 49
2017-11-20 12:00:00 10.1 0 Calma 4 Sur 0 -- -- 68
2017-11-20 11:00:00 1.4 0 Calma 4 Sur 0 -- -- 95
2017-11-20 10:00:00 0.6 0 Calma 6 Sudeste 0 -- -- 90
2017-11-20 09:00:00 1.1 3 Sur 9 Sur 0 -- -- 87
2017-11-20 08:00:00 0.8 5 Sur 15 Sur 0 -- -- 87
2017-11-20 07:00:00 0.4 6 Sur 15 Sur 0 -- -- 87
2017-11-20 06:00:00 0.8 11 Sur 16 Sudoeste 0 -- -- 82
2017-11-20 05:00:00 0.3 9 Sur 17 Sudoeste 0 -- -- 82
2017-11-20 04:00:00 -1.4 0 Calma 5 Sur 0 -- -- 85
2017-11-20 03:00:00 0 0 Calma 13 Sudoeste 0 -- -- 78
2017-11-20 02:00:00 0.8 6 Sur 14 Sudoeste 0 -- -- 73
2017-11-20 01:00:00 0.5 0 Calma 20 Sudoeste 0 -- -- 73
2017-11-20 00:00:00 1.8 14 Sudoeste 21 Sudoeste 0 -- -- 65
2017-11-19 23:00:00 1 3 Sur 14 Sudoeste 0 -- -- 70
2017-11-19 22:00:00 2.4 8 Sur 24 Sudoeste 0 -- -- 65
2017-11-19 21:00:00 2 15 Sudoeste 23 Sudoeste 0 -- -- 65
2017-11-19 20:00:00 1.5 11 Sudoeste 17 Sudoeste 0 -- -- 72
2017-11-19 19:00:00 2 8 Sudoeste 13 Sudoeste 0 -- -- 72
2017-11-19 18:00:00 3 8 Sur 15 Sudoeste 0 -- -- 68
2017-11-19 17:00:00 3.6 4 Sur 10 Sudoeste 0 -- -- 67
2017-11-19 16:00:00 5.1 3 Sur 7 Sudoeste 0 -- -- 64
2017-11-19 15:00:00 10.7 3 Sudoeste 12 Este 0 -- -- 43
2017-11-19 14:00:00 12.9 3 Norte 9 Nordeste 0 -- -- 26
2017-11-19 13:00:00 11.7 3 Nordeste 5 Norte 0 -- -- 33
2017-11-19 12:00:00 6.6 0 Calma 3 Sur 0 -- -- 53
2017-11-19 11:00:00 -1.9 0 Calma 3 Sur 0 -- -- 86
2017-11-19 10:00:00 -2.6 0 Calma 6 Sur 0 -- -- 84
2017-11-19 09:00:00 -2.5 4 Sur 10 Sudoeste 0 -- -- 81
2017-11-19 08:00:00 -3.3 4 Sudoeste 6 Sur 0 -- -- 85
2017-11-19 07:00:00 -2.8 2 Este 5 Sur 0 -- -- 85
2017-11-19 06:00:00 -2.6 0 Calma 6 Sur 0 -- -- 87
2017-11-19 05:00:00 -1.9 3 Sur 10 Sudoeste 0 -- -- 83
2017-11-19 04:00:00 -1.8 2 Sudeste 9 Sur 0 -- -- 86
2017-11-19 03:00:00 -0.8 5 Sur 15 Sudoeste 0 -- -- 82
2017-11-19 02:00:00 -1.5 6 Sur 14 Sudoeste 0 -- -- 91
2017-11-19 01:00:00 -0.3 2 Este 13 Sudoeste 0 -- -- 90
2017-11-19 00:00:00 -0.5 4 Sur 12 Sudoeste 0 -- -- 94
2017-11-18 23:00:00 0.4 3 Sudoeste 15 Sudoeste 0 -- -- 91
2017-11-18 22:00:00 1.3 9 Sur 17 Sudoeste 0 -- -- 90
2017-11-18 21:00:00 2.1 14 Sudoeste 19 Sudoeste 0 -- -- 89
2017-11-18 20:00:00 2.4 12 Sudoeste 15 Sudoeste 0 -- -- 90
2017-11-18 19:00:00 3.2 5 Sur 12 Sudoeste 0 -- -- 91
2017-11-18 18:00:00 3.5 2 Sur 6 Sudoeste 0 -- -- 89
2017-11-18 17:00:00 5.1 0 Calma 6 Sudoeste 0 -- -- 85
2017-11-18 16:00:00 7 4 Sudoeste 15 Norte 0 -- -- 74
2017-11-18 15:00:00 12 10 Norte 20 Norte 0 -- -- 51
2017-11-18 14:00:00 13.1 5 Nordeste 11 Nordeste 0 -- -- 44
2017-11-18 13:00:00 11.9 3 Nordeste 6 Nordeste 0 -- -- 49
2017-11-18 12:00:00 7.9 0 Calma 4 Nordeste 0 -- -- 71
2017-11-18 11:00:00 -0.2 0 Calma 4 Sur 0 -- -- 97
2017-11-18 10:00:00 -0.6 0 Calma 5 Nordeste 0 -- -- 95
2017-11-18 09:00:00 0.1 3 Sudoeste 11 Sudoeste 0 -- -- 92
2017-11-18 08:00:00 0.1 3 Sur 13 Sudoeste 0 -- -- 93
2017-11-18 07:00:00 -0.4 2 Sudoeste 13 Sudoeste 0 -- -- 94
2017-11-18 06:00:00 0.2 4 Sur 11 Sudoeste 0 -- -- 93
2017-11-18 05:00:00 0.5 6 Sur 14 Sudoeste 0 -- -- 93
2017-11-18 04:00:00 -0.3 0 Calma 10 Sur 0 -- -- 96
2017-11-18 03:00:00 0.1 3 Sudoeste 7 Sudoeste 0 -- -- 93
2017-11-18 02:00:00 1.8 3 Sudeste 16 Sur 0 -- -- 89
2017-11-18 01:00:00 2.1 10 Sur 16 Sur 0 -- -- 90
2017-11-18 00:00:00 2.5 10 Sur 16 Sudoeste 0 -- -- 88
2017-11-17 23:00:00 2.9 8 Sur 14 Sudoeste 0 -- -- 87
2017-11-17 22:00:00 3.4 9 Sudoeste 15 Sudoeste 0 -- -- 86
2017-11-17 21:00:00 3.1 8 Sur 12 Sudoeste 0 -- -- 89
2017-11-17 20:00:00 3.4 3 Sur 11 Sudoeste 0 -- -- 87
2017-11-17 19:00:00 3.6 0 Calma 9 Sudoeste 0 -- -- 88
2017-11-17 18:00:00 4.5 0 Calma 5 Sudoeste 0 -- -- 85
2017-11-17 17:00:00 6.5 0 Calma 5 Sur 0 -- -- 77
2017-11-17 16:00:00 8.9 3 Sur 9 Sudoeste 0 -- -- 69
2017-11-17 15:00:00 13.8 5 Sudoeste 12 Nordeste 0 -- -- 51
2017-11-17 14:00:00 15.6 4 Nordeste 12 Norte 0 -- -- 37
2017-11-17 13:00:00 14.3 2 Norte 5 Nordeste 0 -- -- 40
2017-11-17 12:00:00 10.1 0 Calma 4 Sur 0 -- -- 61
2017-11-17 11:00:00 1.7 0 Calma 5 Nordeste 0 -- -- 87
2017-11-17 10:00:00 0.9 3 Nordeste 6 Norte 0 -- -- 87
2017-11-17 09:00:00 1.7 5 Sur 17 Sudoeste 0 -- -- 77
2017-11-17 08:00:00 1.5 9 Sur 20 Oeste 0 -- -- 77
2017-11-17 07:00:00 0.6 6 Sur 11 Sudoeste 0 -- -- 81
2017-11-17 06:00:00 2.4 3 Este 23 Sudoeste 0 -- -- 73
2017-11-17 05:00:00 2.2 8 Sur 22 Sudoeste 0 -- -- 75
2017-11-17 04:00:00 1.9 12 Sudoeste 18 Sudoeste 0 -- -- 79
2017-11-17 03:00:00 2.2 9 Sur 15 Sudoeste 0 -- -- 80
2017-11-17 02:00:00 2.9 10 Sur 15 Sudoeste 0 -- -- 78
2017-11-17 01:00:00 3.3 9 Sur 15 Sur 0 -- -- 78
2017-11-17 00:00:00 3.7 8 Sur 16 Sur 0 -- -- 76
2017-11-16 23:00:00 3.7 10 Sur 14 Sudoeste 0 -- -- 77
2017-11-16 22:00:00 4.1 7 Sur 18 Sudoeste 0 -- -- 76
2017-11-16 21:00:00 4.1 9 Sudoeste 15 Sudoeste 0 -- -- 78
2017-11-16 20:00:00 3.9 7 Sudoeste 14 Sur 0 -- -- 81
2017-11-16 19:00:00 4.1 3 Sudoeste 8 Sudoeste 0 -- -- 82
2017-11-16 18:00:00 5.6 0 Calma 6 Oeste 0 -- -- 77
2017-11-16 17:00:00 9.2 0 Calma 9 Sudoeste 0 -- -- 66
2017-11-16 16:00:00 11 3 Sur 17 Norte 0 -- -- 57
2017-11-16 15:00:00 15.7 9 Norte 21 Norte 0 -- -- 33
2017-11-16 14:00:00 16.4 4 Nordeste 8 Nordeste 0 -- -- 34
2017-11-16 13:00:00 14.1 3 Nordeste 5 Nordeste 0 -- -- 41
2017-11-16 12:00:00 10.1 2 Este 5 Sur 0 -- -- 59
2017-11-16 11:00:00 1.3 0 Calma 4 Oeste 0 -- -- 93
2017-11-16 10:00:00 1 0 Calma 9 Sudoeste 0 -- -- 85
2017-11-16 09:00:00 2 8 Sudoeste 17 Sudoeste 0 -- -- 78
2017-11-16 08:00:00 1.6 9 Sur 17 Sur 0 -- -- 80
2017-11-16 07:00:00 1.6 9 Sur 17 Sur 0 -- -- 81
2017-11-16 06:00:00 1.5 10 Sur 18 Sudoeste 0 -- -- 81
2017-11-16 05:00:00 1.5 10 Sur 18 Sudoeste 0 -- -- 82
2017-11-16 04:00:00 1.7 11 Sudoeste 22 Sur 0 -- -- 83
2017-11-16 03:00:00 1.8 10 Sur 18 Sudoeste 0 -- -- 83
2017-11-16 02:00:00 1.9 12 Sur 17 Sudoeste 0 -- -- 84
2017-11-16 01:00:00 2.2 10 Sur 17 Sur 0 -- -- 84
2017-11-16 00:00:00 2.2 11 Sur 17 Sudoeste 0 -- -- 86
2017-11-15 23:00:00 3.1 10 Sudoeste 17 Sudoeste 0 -- -- 82
2017-11-15 22:00:00 3.4 9 Sur 16 Sudoeste 0 -- -- 83
2017-11-15 21:00:00 3.7 10 Sur 19 Sudoeste 0 -- -- 84
2017-11-15 20:00:00 4.5 10 Sur 15 Sur 0 -- -- 82
2017-11-15 19:00:00 5.1 8 Sudoeste 13 Sudoeste 0 -- -- 81
2017-11-15 18:00:00 5.8 4 Sur 12 Sudoeste 0 -- -- 81
2017-11-15 17:00:00 6.9 4 Sudoeste 7 Sudoeste 0 -- -- 79
2017-11-15 16:00:00 8.8 4 Sur 12 Sudoeste 0 -- -- 69
2017-11-15 15:00:00 10.9 6 Sudoeste 10 Sudoeste 0 -- -- 59
2017-11-15 14:00:00 13.3 4 Sur 10 Sudoeste 0 -- -- 48
2017-11-15 13:00:00 9.7 4 Sur 8 Sudoeste 0 -- -- 54
2017-11-15 12:00:00 5.3 0 Calma 3 Nordeste 0 -- -- 70
2017-11-15 11:00:00 1.7 2 Nordeste 5 Norte 0 -- -- 81
2017-11-15 10:00:00 0.5 4 Nordeste 13 Sudoeste 0 -- -- 77
2017-11-15 09:00:00 -- 4 Sudoeste 14 Sudoeste 0 -- -- --
2017-11-15 08:00:00 -1.5 8 Sur 17 Sudoeste 0 -- -- 75
2017-11-15 07:00:00 -3.2 6 Sur 14 Sudoeste 0 -- -- 82
2017-11-15 06:00:00 -3.2 3 Sudoeste 19 Sudoeste 0 -- -- 82
2017-11-15 05:00:00 -2.8 8 Sudoeste 15 Sur 0 -- -- 80
2017-11-15 04:00:00 -2.5 7 Sur 13 Sur 0 -- -- 80
2017-11-15 03:00:00 -3.1 3 Sur 12 Sur 0 -- -- 86
2017-11-15 02:00:00 -3.1 6 Sur 12 Sudoeste 0 -- -- 89
2017-11-15 01:00:00 -2.9 3 Sur 14 Sur 0 -- -- 91
2017-11-15 00:00:00 -2.6 5 Sudoeste 14 Sudoeste 0 -- -- 90
2017-11-14 23:00:00 -1.8 10 Sur 14 Sudoeste 0 -- -- 90
2017-11-14 22:00:00 -1.6 7 Sur 13 Sudoeste 0 -- -- 90
2017-11-14 21:00:00 -1.3 6 Sur 14 Sudoeste 0 -- -- 90
2017-11-14 20:00:00 -0.9 3 Nordeste 12 Sudoeste 0 -- -- 89
2017-11-14 19:00:00 -0.4 4 Sur 10 Sur 0 -- -- 88
2017-11-14 18:00:00 0.1 0 Calma 5 Sudoeste 0 -- -- 88
2017-11-14 17:00:00 1.7 0 Calma 4 Sur 0 -- -- 84
2017-11-14 16:00:00 3.5 4 Sudoeste 10 Sudoeste 0 -- -- 73
2017-11-14 15:00:00 8.1 5 Sudoeste 14 Norte 0 -- -- 57
2017-11-14 14:00:00 8.8 4 Sur 8 Nordeste 0 -- -- 43
2017-11-14 13:00:00 6.9 4 Nordeste 9 Nordeste 0 -- -- 50
2017-11-14 12:00:00 4.5 2 Nordeste 5 Nordeste 0 -- -- 74
2017-11-14 11:00:00 -2.2 0 Calma 4 Este 0 -- -- 98
2017-11-14 10:00:00 -2.7 2 Sur 4 Norte 0 -- -- 98
2017-11-14 09:00:00 -2.9 0 Calma 7 Sur 0 -- -- 95
2017-11-14 08:00:00 -2.3 4 Sur 12 Sudoeste 0 -- -- 95
2017-11-14 07:00:00 -2.4 9 Sudoeste 16 Sudoeste 0 -- -- 98
2017-11-14 06:00:00 -2.7 4 Sudoeste 8 Sudoeste 0 -- -- 98
2017-11-14 05:00:00 -2.4 3 Norte 9 Sudoeste 0 -- -- 96
2017-11-14 04:00:00 -2.4 4 Sudoeste 7 Sudoeste 0 -- -- 98
2017-11-14 03:00:00 -1.8 0 Calma 4 Oeste 0 -- -- 97
2017-11-14 02:00:00 -0.6 2 Sudeste 4 Sudeste 0 -- -- 96
2017-11-14 01:00:00 0 0 Calma 5 Noroeste 0 -- -- 96
2017-11-14 00:00:00 0.5 0 Calma 4 Oeste 0 -- -- 95
2017-11-13 23:00:00 0.2 0 Calma 5 Nordeste 0 -- -- 96
2017-11-13 22:00:00 0 3 Nordeste 5 Nordeste 0 -- -- 96
2017-11-13 21:00:00 -0.8 0 Calma 5 Oeste 0 -- -- 96
2017-11-13 20:00:00 -0.7 3 Sur 5 Sudeste 0 -- -- 91
2017-11-13 19:00:00 0.4 0 Calma 4 Sudoeste 0 -- -- 88
2017-11-13 18:00:00 2.3 0 Calma 13 Nordeste 0 -- -- 78
2017-11-13 17:00:00 4 10 Nordeste 22 Norte 0 -- -- 66
2017-11-13 16:00:00 4.7 8 Norte 23 Norte 0 -- -- 63
2017-11-13 15:00:00 5.1 12 Norte 21 Norte 0 -- -- 61
2017-11-13 14:00:00 5 12 Norte 24 Norte 0 -- -- 61
2017-11-13 13:00:00 5 12 Norte 23 Nordeste 0 -- -- 59
2017-11-13 12:00:00 4.5 13 Norte 23 Norte 0 -- -- 64
2017-11-13 11:00:00 3.8 9 Norte 19 Norte 0 -- -- 76
2017-11-13 10:00:00 2.9 6 Nordeste 12 Nordeste 0 -- -- 82
2017-11-13 09:00:00 2.4 3 Nordeste 21 Norte 0 -- -- 85
2017-11-13 08:00:00 2.5 13 Norte 28 Norte 0 -- -- 88
2017-11-13 07:00:00 2.7 8 Norte 19 Norte 0 -- -- 90
2017-11-13 06:00:00 3 9 Nordeste 24 Norte 0 -- -- 89
2017-11-13 05:00:00 3 11 Norte 22 Norte 0 -- -- 90
2017-11-13 04:00:00 2.8 9 Norte 22 Norte 0.6 -- -- 93
2017-11-13 03:00:00 3.1 10 Norte 21 Norte 0.2 -- -- 93
2017-11-13 02:00:00 3.6 14 Norte 41 Norte 0.2 -- -- 91
2017-11-13 01:00:00 6.3 17 Norte 32 Nordeste 0.6 -- -- 90
2017-11-13 00:00:00 8.1 18 Norte 32 Norte 0.4 -- -- 89
2017-11-12 23:00:00 9.5 7 Nordeste 17 Norte 0.2 -- -- 88
2017-11-12 22:00:00 8.8 3 Sur 10 Norte 0 -- -- 97
2017-11-12 21:00:00 8.7 4 Norte 10 Norte 0.2 -- -- 96
2017-11-12 20:00:00 8.6 3 Nordeste 10 Noroeste 0 -- -- 97
2017-11-12 19:00:00 8.9 0 Calma 5 Oeste 0.2 -- -- 96
2017-11-12 18:00:00 9.7 3 Nordeste 8 Sudeste 0 -- -- 92
2017-11-12 17:00:00 11.5 0 Calma 19 Nordeste 0 -- -- 81
2017-11-12 16:00:00 12.1 12 Nordeste 26 Norte 0 -- -- 76
2017-11-12 15:00:00 12.5 14 Norte 30 Norte 0.2 -- -- 73
2017-11-12 14:00:00 15.5 3 Sudoeste 14 Norte 0 -- -- 60
2017-11-12 13:00:00 13.5 6 Nordeste 13 Norte 0 -- -- 70
2017-11-12 12:00:00 11.5 6 Este 11 Sudoeste 0 -- -- 75
2017-11-12 11:00:00 7.3 3 Sur 17 Sudoeste 0 -- -- 95
2017-11-12 10:00:00 5.3 3 Nordeste 8 Nordeste 0 -- -- 99
2017-11-12 09:00:00 4.7 0 Calma 9 Sudoeste 0 -- -- 96
2017-11-12 08:00:00 5.5 0 Calma 14 Sudoeste 0 -- -- 96
2017-11-12 07:00:00 5.5 7 Sudoeste 13 Sudoeste 0 -- -- 96
2017-11-12 06:00:00 6.3 6 Sudoeste 13 Sudoeste 0 -- -- 94
2017-11-12 05:00:00 6.3 0 Calma 4 Sudoeste 0 -- -- 95
2017-11-12 04:00:00 6.5 2 Sudeste 9 Sudoeste 0 -- -- 93
2017-11-12 03:00:00 6.5 3 Sudoeste 13 Sudoeste 0 -- -- 93
2017-11-12 02:00:00 6.6 6 Sudoeste 17 Sudoeste 0 -- -- 93
2017-11-12 01:00:00 6.4 4 Sur 9 Sudoeste 0 -- -- 94
2017-11-12 00:00:00 6.8 3 Este 13 Sudoeste 0 -- -- 93
2017-11-11 23:00:00 6.9 6 Sudoeste 22 Sudoeste 0 -- -- 91
2017-11-11 22:00:00 6.7 11 Sudoeste 24 Sudoeste 0 -- -- 91
2017-11-11 21:00:00 6.6 12 Sudoeste 19 Sudoeste 0 -- -- 93
2017-11-11 20:00:00 6.5 5 Sudoeste 10 Sudoeste 0 -- -- 95
2017-11-11 19:00:00 6.7 4 Sudoeste 16 Sudoeste 0 -- -- 92
2017-11-11 18:00:00 7.3 11 Sudoeste 19 Sudoeste 0 -- -- 92
2017-11-11 17:00:00 8 6 Sudoeste 20 Sudoeste 0 -- -- 91
2017-11-11 16:00:00 8.8 16 Sudoeste 23 Oeste 0 -- -- 88
2017-11-11 15:00:00 9.3 18 Sudoeste 24 Sudoeste 0 -- -- 87
2017-11-11 14:00:00 9.9 13 Sudoeste 17 Sudoeste 0 -- -- 86
2017-11-11 13:00:00 9.3 13 Sudoeste 18 Sudoeste 0 -- -- 91
2017-11-11 12:00:00 8.4 5 Sudoeste 9 Sudoeste 0 -- -- 100
2017-11-11 11:00:00 7.3 3 Norte 7 Norte 0 -- -- 100
2017-11-11 10:00:00 6.2 0 Calma 5 Norte 0.2 -- -- 100
2017-11-11 09:00:00 5.8 2 Nordeste 5 Norte 0 -- -- 100
2017-11-11 08:00:00 5.4 3 Nordeste 6 Norte 0.2 -- -- 100
2017-11-11 07:00:00 5.2 2 Nordeste 5 Nordeste 0.4 -- -- 100
2017-11-11 06:00:00 5.1 3 Nordeste 5 Noroeste 0.6 -- -- 100
2017-11-11 05:00:00 5 0 Calma 5 Nordeste 0.4 -- -- 100
2017-11-11 04:00:00 4.9 3 Nordeste 5 Oeste 0.4 -- -- 100
2017-11-11 03:00:00 4.7 2 Nordeste 5 Norte 0.6 -- -- 100
2017-11-11 02:00:00 4.6 3 Nordeste 5 Este 0.2 -- -- 100
2017-11-11 01:00:00 4.4 3 Norte 5 Norte 0.2 -- -- 100
2017-11-11 00:00:00 4.1 0 Calma 4 Norte 0.6 -- -- 100
2017-11-10 23:00:00 3.8 2 Norte 5 Noroeste 0.4 -- -- 100
2017-11-10 22:00:00 3.7 2 Sur 4 Noroeste 0.6 -- -- 99
2017-11-10 21:00:00 3.7 0 Calma 4 Sudoeste 0 -- -- 99
2017-11-10 20:00:00 3.8 2 Sur 4 Sudoeste 0 -- -- 98
2017-11-10 19:00:00 4 0 Calma 4 Oeste 0 -- -- 96
2017-11-10 18:00:00 4.4 0 Calma 5 Sur 0 -- -- 93
2017-11-10 17:00:00 5.6 0 Calma 6 Sur 0 -- -- 91
2017-11-10 16:00:00 -- 7 Sudoeste 17 Sudoeste 0 -- -- --
2017-11-10 15:00:00 6.1 12 Sudoeste 21 Sudoeste 0 -- -- 84
2017-11-10 14:00:00 5.5 13 Sudoeste 23 Sudoeste 0 -- -- 84
2017-11-10 13:00:00 4.5 15 Sudoeste 21 Sudoeste 0 -- -- 86
2017-11-10 12:00:00 4.4 15 Sudoeste 22 Sudoeste 0 -- -- 86
2017-11-10 11:00:00 3.7 12 Sudoeste 19 Sudoeste 0 -- -- 88
2017-11-10 10:00:00 2.5 6 Sudoeste 11 Oeste 0 -- -- 98
2017-11-10 09:00:00 1.4 4 Sudoeste 13 Sudoeste 0 -- -- 100
2017-11-10 08:00:00 0.5 3 Sudoeste 8 Sur 0 -- -- 100
2017-11-10 07:00:00 0.2 0 Calma 4 Sudeste 0 -- -- 100
2017-11-10 06:00:00 0.9 3 Nordeste 9 Sudoeste 0 -- -- 100
2017-11-10 05:00:00 1.2 2 Norte 6 Este 0 -- -- 100
2017-11-10 04:00:00 0.9 3 Nordeste 5 Norte 0 -- -- 100
2017-11-10 03:00:00 0.8 2 Sudeste 4 Sudeste 0 -- -- 100
2017-11-10 02:00:00 0.7 2 Nordeste 4 Norte 0 -- -- 100
2017-11-10 01:00:00 0.6 2 Sudoeste 5 Noroeste 0 -- -- 100
2017-11-10 00:00:00 0.8 3 Este 5 Este 0 -- -- 100
2017-11-09 23:00:00 0.6 2 Sur 5 Este 0.4 -- -- 100
2017-11-09 22:00:00 0.6 0 Calma 6 Oeste 0.6 -- -- 100
2017-11-09 21:00:00 0.5 2 Nordeste 5 Norte 0.8 -- -- 100
2017-11-09 20:00:00 0.4 0 Calma 5 Oeste 0.6 -- -- 100
2017-11-09 19:00:00 0.4 3 Este 5 Oeste 1.8 -- -- 100
2017-11-09 18:00:00 0.3 0 Calma 4 Sur 2.2 -- -- 100
2017-11-09 17:00:00 0.3 0 Calma 4 Norte 1.8 -- -- 99
2017-11-09 16:00:00 0.3 0 Calma 6 Nordeste 2.2 -- -- 99
2017-11-09 15:00:00 0.6 2 Nordeste 6 Norte 2.4 -- -- 99
2017-11-09 14:00:00 0.6 2 Norte 5 Norte 2.4 -- -- 99
2017-11-09 13:00:00 0.9 2 Nordeste 5 Norte 1.4 -- -- 99
2017-11-09 12:00:00 0.9 0 Calma 5 Norte 1.6 -- -- 99
2017-11-09 11:00:00 0.6 0 Calma 5 Norte 1 -- -- 100
2017-11-09 10:00:00 0.3 0 Calma 2 Noroeste 1.4 -- -- 100
2017-11-09 09:00:00 0.1 0 Calma 2 Norte 1.8 -- -- 100
2017-11-09 08:00:00 0 2 Norte 3 Norte 2 -- -- 100
2017-11-09 07:00:00 0 0 Calma 5 Norte 2.4 -- -- 100
2017-11-09 06:00:00 0 3 Nordeste 5 Nordeste 2.8 -- -- 99
2017-11-09 05:00:00 0.1 3 Norte 5 Norte 1.8 -- -- 99
2017-11-09 04:00:00 0.8 0 Calma 4 Nordeste 1.6 -- -- 96
2017-11-09 03:00:00 2 0 Calma 3 Noroeste -- -- -- 98
2017-11-09 02:00:00 2.2 0 Calma 3 Este 0.2 -- -- 98
2017-11-09 01:00:00 2.2 0 Calma 5 Sudoeste 0 -- -- 99
2017-11-09 00:00:00 2.1 0 Calma 9 Sudoeste 0 -- -- 99
2017-11-08 23:00:00 1.7 3 Sur 5 Sur 0 -- -- 99
2017-11-08 22:00:00 1.8 0 Calma 4 Este 0 -- -- 96
2017-11-08 21:00:00 3.1 3 Sudeste 5 Este 0 -- -- 97
2017-11-08 20:00:00 3.5 2 Nordeste 5 Norte 0 -- -- 97
2017-11-08 19:00:00 3.7 0 Calma 4 Oeste 0 -- -- 96
2017-11-08 18:00:00 4.1 0 Calma 4 Sudoeste 0 -- -- 95
2017-11-08 17:00:00 5 3 Sudoeste 14 Sudoeste 0 -- -- 91
2017-11-08 16:00:00 5.4 4 Oeste 8 Sudoeste 0 -- -- 86
2017-11-08 15:00:00 4.9 3 Sudoeste 17 Nordeste 0.4 -- -- 88
2017-11-08 14:00:00 5.2 6 Norte 13 Norte 0.2 -- -- 88
2017-11-08 13:00:00 5 5 Nordeste 11 Norte 0.2 -- -- 91
2017-11-08 12:00:00 3.8 5 Nordeste 8 Nordeste 0.2 -- -- 94
2017-11-08 11:00:00 2.3 2 Nordeste 6 Norte 1.4 -- -- 94
2017-11-08 10:00:00 2.3 0 Calma 4 Noroeste 0.6 -- -- 94
2017-11-08 09:00:00 1.6 0 Calma 6 Norte 0.2 -- -- 96
2017-11-08 08:00:00 1.1 0 Calma 5 Nordeste 0 -- -- 96
2017-11-08 07:00:00 1.4 0 Calma 5 Este 0 -- -- 92
2017-11-08 06:00:00 1.6 0 Calma 5 Sudoeste 0 -- -- 88
2017-11-08 05:00:00 1.8 3 Norte 8 Nordeste 0 -- -- 84
2017-11-08 04:00:00 1.7 3 Nordeste 9 Sudoeste 0 -- -- 81
2017-11-08 03:00:00 1.9 2 Norte 24 Sudoeste 0 -- -- 79
2017-11-08 02:00:00 1.6 16 Sudoeste 30 Sudoeste 0 -- -- 74
2017-11-08 01:00:00 -0.5 12 Sudoeste 22 Sudoeste 0 -- -- 90
2017-11-08 00:00:00 -2.5 3 Sudoeste 7 Sudoeste 0 -- -- 97
2017-11-07 23:00:00 -2.3 0 Calma 6 Sudoeste 0 -- -- 95
2017-11-07 22:00:00 -1.8 4 Sudoeste 15 Sudoeste 0 -- -- 92
2017-11-07 21:00:00 -1.2 8 Sudoeste 17 Sudoeste 0 -- -- 91
2017-11-07 20:00:00 -1.1 4 Sur 8 Sudoeste 0 -- -- 91
2017-11-07 19:00:00 0 3 Sur 18 Sudoeste 0 -- -- 85
2017-11-07 18:00:00 0.7 14 Sudoeste 21 Sudoeste 0 -- -- 83
2017-11-07 17:00:00 1.9 12 Sudoeste 19 Sudoeste 0 -- -- 74
2017-11-07 16:00:00 3.4 11 Sur 20 Sur 0 -- -- 63
2017-11-07 15:00:00 7.9 13 Sur 21 Sur 0 -- -- 47
2017-11-07 14:00:00 9 3 Norte 8 Nordeste 0 -- -- 35
2017-11-07 13:00:00 7.3 3 Nordeste 6 Nordeste 0 -- -- 45
2017-11-07 12:00:00 5.1 3 Este 6 Este 0 -- -- 52
2017-11-07 11:00:00 -1.5 2 Este 6 Nordeste 0 -- -- 86
2017-11-07 10:00:00 -2.5 0 Calma 7 Sur 0 -- -- 87
2017-11-07 09:00:00 -2.2 3 Sur 21 Sudoeste 0 -- -- 80
2017-11-07 08:00:00 -2.3 11 Sudoeste 21 Sudoeste 0 -- -- 80
2017-11-07 07:00:00 -2 10 Sudoeste 27 Sudoeste 0 -- -- 78
2017-11-07 06:00:00 -1.7 15 Sudoeste 24 Sudoeste 0 -- -- 79
2017-11-07 05:00:00 -2 9 Sudoeste 17 Sudoeste 0 -- -- 85
2017-11-07 04:00:00 -1.4 12 Sudoeste 18 Sudoeste 0 -- -- 86
2017-11-07 03:00:00 -0.4 13 Sudoeste 19 Sur 0 -- -- 84
2017-11-07 02:00:00 -0.6 11 Sudoeste 19 Sudoeste 0 -- -- 91
2017-11-07 01:00:00 -0.4 4 Sur 9 Sudoeste 0 -- -- 95
2017-11-07 00:00:00 -0.6 0 Calma 8 Sudoeste 0 -- -- 94
2017-11-06 23:00:00 0.5 0 Calma 6 Este 0 -- -- 90
2017-11-06 22:00:00 2.2 3 Este 6 Noroeste 0 -- -- 82
2017-11-06 21:00:00 3.1 0 Calma 8 Norte 0 -- -- 83
2017-11-06 20:00:00 3.8 5 Norte 13 Norte 0 -- -- 76
2017-11-06 19:00:00 4.1 5 Norte 15 Nordeste 0 -- -- 73
2017-11-06 18:00:00 4.3 3 Norte 9 Nordeste 0 -- -- 72
2017-11-06 17:00:00 5.6 4 Norte 8 Nordeste 0 -- -- 66
2017-11-06 16:00:00 6 7 Nordeste 22 Norte 0 -- -- 58
2017-11-06 15:00:00 6.1 13 Norte 26 Nordeste 0 -- -- 64
2017-11-06 14:00:00 6.5 10 Norte 26 Norte 0 -- -- 60
2017-11-06 13:00:00 5.5 9 Nordeste 19 Nordeste 0 -- -- 70
2017-11-06 12:00:00 4.1 10 Norte 19 Norte 0 -- -- 82
2017-11-06 11:00:00 3.9 8 Nordeste 23 Nordeste 0 -- -- 79
2017-11-06 10:00:00 4.6 10 Nordeste 33 Nordeste 0 -- -- 67
2017-11-06 09:00:00 4.3 11 Nordeste 22 Norte 0 -- -- 67
2017-11-06 08:00:00 4.2 9 Norte 24 Nordeste 0 -- -- 68
2017-11-06 07:00:00 3.9 10 Nordeste 26 Este 0 -- -- 73
2017-11-06 06:00:00 3.9 15 Nordeste 26 Este 0 -- -- 71
2017-11-06 05:00:00 3.7 11 Nordeste 31 Nordeste 0.2 -- -- 81
2017-11-06 04:00:00 3.2 8 Nordeste 27 Norte 0.6 -- -- 89
2017-11-06 03:00:00 3.4 8 Nordeste 31 Norte 0.8 -- -- 90
2017-11-06 02:00:00 3.5 8 Norte 18 Noroeste 0.2 -- -- 88
2017-11-06 01:00:00 3.6 8 Nordeste 22 Norte 0.6 -- -- 91
2017-11-06 00:00:00 3.9 10 Norte 24 Nordeste 0.4 -- -- 92
2017-11-05 23:00:00 4.3 9 Nordeste 27 Norte 0.2 -- -- 87
2017-11-05 22:00:00 2.6 5 Nordeste 18 Nordeste 2.8 -- -- 97
2017-11-05 21:00:00 2.7 10 Nordeste 31 Norte 4.2 -- -- 94
2017-11-05 20:00:00 3.5 4 Noroeste 9 Nordeste 1.6 -- -- 96
2017-11-05 19:00:00 3.6 3 Nordeste 13 Norte 1.2 -- -- 94
2017-11-05 18:00:00 4.6 11 Norte 32 Norte 1.2 -- -- 89
2017-11-05 17:00:00 7.4 3 Nordeste 14 Nordeste 0 -- -- 79
2017-11-05 16:00:00 8.5 2 Norte 6 Norte 0 -- -- 74
2017-11-05 15:00:00 8 2 Sur 19 Nordeste 0 -- -- 79
2017-11-05 14:00:00 8.1 8 Nordeste 17 Nordeste 0 -- -- 78
2017-11-05 13:00:00 7.7 9 Nordeste 21 Nordeste 0.2 -- -- 80
2017-11-05 12:00:00 8.8 7 Nordeste 14 Norte 0 -- -- 72
2017-11-05 11:00:00 7.7 4 Sur 14 Norte 0 -- -- 83
2017-11-05 10:00:00 6.6 9 Norte 22 Norte 0 -- -- 90
2017-11-05 09:00:00 5.9 4 Norte 25 Norte 0.2 -- -- 91
2017-11-05 08:00:00 6.6 12 Norte 26 Norte 0.4 -- -- 92
2017-11-05 07:00:00 7.3 13 Norte 24 Norte 0.2 -- -- 92
2017-11-05 06:00:00 7.9 13 Norte 31 Norte 1 -- -- 92
2017-11-05 05:00:00 8.9 3 Nordeste 7 Nordeste 3.2 -- -- 98
2017-11-05 04:00:00 9.2 2 Nordeste 6 Este 2 -- -- 98
2017-11-05 03:00:00 9.3 3 Oeste 8 Noroeste 1.2 -- -- 99
2017-11-05 02:00:00 9.3 2 Norte 5 Nordeste 1.4 -- -- 99
2017-11-05 01:00:00 9.6 0 Calma 5 Sudeste 0.6 -- -- 97
2017-11-05 00:00:00 9.9 3 Sudeste 13 Nordeste 0.8 -- -- 96
2017-11-04 23:00:00 10.1 4 Norte 12 Nordeste 1.4 -- -- 99
2017-11-04 22:00:00 10.2 0 Calma 3 Oeste 0 -- -- 98
2017-11-04 21:00:00 10.5 0 Calma 4 Noroeste 3.2 -- -- 97
2017-11-04 20:00:00 11.1 2 Sur 12 Nordeste 1.4 -- -- 95
2017-11-04 19:00:00 11.4 0 Calma 5 Sudoeste 0.2 -- -- 94
2017-11-04 18:00:00 12.3 0 Calma 5 Oeste 0 -- -- 90
2017-11-04 17:00:00 13.6 2 Sudoeste 8 Sudoeste 0 -- -- 85
2017-11-04 16:00:00 14.1 8 Sudoeste 20 Sudoeste 0 -- -- 77
2017-11-04 15:00:00 14 10 Sudoeste 24 Sudoeste 0 -- -- 78
2017-11-04 14:00:00 13.2 7 Sudoeste 26 Sudoeste 0 -- -- 82
2017-11-04 13:00:00 12.6 11 Sudoeste 31 Sudoeste 0.8 -- -- 86
2017-11-04 12:00:00 12.4 5 Sudoeste 14 Oeste 0 -- -- 92
2017-11-04 11:00:00 10.9 3 Norte 22 Sudoeste 0.6 -- -- 94
2017-11-04 10:00:00 9.7 12 Sudoeste 26 Sudoeste 3 -- -- 94
2017-11-04 09:00:00 9.7 4 Sudeste 19 Oeste 0 -- -- 81
2017-11-04 08:00:00 7.5 4 Nordeste 6 Norte 0 -- -- 93
2017-11-04 07:00:00 7.6 2 Nordeste 6 Sudoeste 0 -- -- 89
2017-11-04 06:00:00 8 3 Sudeste 6 Norte 0 -- -- 90
2017-11-04 05:00:00 8.1 2 Sudoeste 8 Noroeste 0 -- -- 89
2017-11-04 04:00:00 8.2 2 Sudeste 9 Nordeste 0 -- -- 88
2017-11-04 03:00:00 8.8 5 Nordeste 12 Sur 0 -- -- 83
2017-11-04 02:00:00 8.3 0 Calma 9 Sur 0 -- -- 85
2017-11-04 01:00:00 8.2 2 Sudoeste 8 Oeste 0 -- -- 84
2017-11-04 00:00:00 7.8 0 Calma 7 Sur 0 -- -- 85
2017-11-03 23:00:00 8.1 3 Este 6 Oeste 0 -- -- 81
2017-11-03 22:00:00 9.1 2 Este 14 Sudoeste 0 -- -- 77
2017-11-03 21:00:00 8.5 2 Nordeste 7 Sur 0 -- -- 78
2017-11-03 20:00:00 10.2 2 Sur 6 Norte 0 -- -- 71
2017-11-03 19:00:00 13 0 Calma 4 Noroeste 0 -- -- 64
2017-11-03 18:00:00 16.4 2 Sur 18 Nordeste 0 -- -- 49
2017-11-03 17:00:00 19.8 6 Sudoeste 38 Sudoeste 0 -- -- 36
2017-11-03 16:00:00 21.1 14 Sudoeste 25 Sur 0 -- -- 33
2017-11-03 15:00:00 22.4 11 Sudoeste 41 Sudoeste 0 -- -- 33
2017-11-03 14:00:00 23.6 11 Sur 30 Sudoeste 0 -- -- 34
2017-11-03 13:00:00 23.7 19 Sudoeste 39 Oeste 0 -- -- 33
2017-11-03 12:00:00 17.5 7 Nordeste 14 Nordeste 0 -- -- 47
2017-11-03 11:00:00 14.2 3 Sur 6 Sudoeste 0 -- -- 67
2017-11-03 10:00:00 8.4 3 Nordeste 6 Norte 0 -- -- 81
2017-11-03 09:00:00 6 3 Noroeste 8 Noroeste 0 -- -- 89
2017-11-03 08:00:00 3.7 0 Calma 5 Oeste 0 -- -- 91
2017-11-03 07:00:00 4.3 3 Norte 6 Oeste 0 -- -- 89
2017-11-03 06:00:00 4.8 2 Noroeste 9 Sudoeste 0 -- -- 87
2017-11-03 05:00:00 6 0 Calma 19 Sudoeste 0 -- -- 81
2017-11-03 04:00:00 5 0 Calma 10 Sur 0 -- -- 87
2017-11-03 03:00:00 5.6 7 Sur 10 Sudoeste 0 -- -- 87
2017-11-03 02:00:00 4.9 0 Calma 7 Sudoeste 0 -- -- 91
2017-11-03 01:00:00 5.6 2 Sudoeste 10 Sudoeste 0 -- -- 87
2017-11-03 00:00:00 5.6 2 Sudoeste 10 Sudoeste 0 -- -- 89
2017-11-02 23:00:00 5.7 2 Sudoeste 6 Oeste 0 -- -- 89
2017-11-02 22:00:00 6.9 0 Calma 12 Sudoeste 0 -- -- 86
2017-11-02 21:00:00 7.3 0 Calma 8 Sudoeste 0 -- -- 86
2017-11-02 20:00:00 9.2 2 Norte 16 Sur 0 -- -- 76
2017-11-02 19:00:00 10.8 7 Sudoeste 14 Sudoeste 0 -- -- 72
2017-11-02 18:00:00 11.6 0 Calma 3 Sudeste 0 -- -- 75
2017-11-02 17:00:00 14.5 2 Sudoeste 5 Sudoeste 0 -- -- 70
2017-11-02 16:00:00 17.6 2 Sur 12 Nordeste 0 -- -- 53
2017-11-02 15:00:00 18.8 5 Nordeste 10 Norte 0 -- -- 42
2017-11-02 14:00:00 18.3 0 Calma 7 Norte 0 -- -- 42
2017-11-02 13:00:00 16.9 2 Norte 6 Nordeste 0 -- -- 41
2017-11-02 12:00:00 15 2 Sur 4 Sur 0 -- -- 53
2017-11-02 11:00:00 11.8 2 Sur 4 Noroeste 0 -- -- 64
2017-11-02 10:00:00 10 0 Calma 13 Sudoeste 0 -- -- 68
2017-11-02 09:00:00 7.2 5 Sur 13 Sur 0 -- -- 75
2017-11-02 08:00:00 5.3 7 Sudoeste 15 Sudoeste 0 -- -- 83
2017-11-02 07:00:00 6.3 11 Sur 17 Sudoeste 0 -- -- 78
2017-11-02 06:00:00 5.9 13 Sudoeste 17 Sudoeste 0 -- -- 81
2017-11-02 05:00:00 4.6 12 Sudoeste 17 Sur 0 -- -- 89
2017-11-02 04:00:00 3.2 2 Nordeste 8 Sudoeste 0 -- -- 97
2017-11-02 03:00:00 3.4 2 Sur 8 Oeste 0 -- -- 98
2017-11-02 02:00:00 3.7 0 Calma 6 Oeste 0 -- -- 97
2017-11-02 01:00:00 4.1 0 Calma 8 Oeste 0 -- -- 95
2017-11-02 00:00:00 4.6 0 Calma 6 Sur 0 -- -- 94
2017-11-01 23:00:00 4.9 3 Sudoeste 8 Sudoeste 0 -- -- 92
2017-11-01 22:00:00 5.7 2 Sur 7 Sudoeste 0 -- -- 87
2017-11-01 21:00:00 7.6 3 Nordeste 13 Sur 0 -- -- 80
2017-11-01 20:00:00 8.3 10 Sudoeste 14 Sudoeste 0 -- -- 77
2017-11-01 19:00:00 8.8 5 Sur 12 Sur 0 -- -- 76
2017-11-01 18:00:00 10 2 Sudoeste 5 Sudoeste 0 -- -- 73
2017-11-01 17:00:00 12.7 2 Sur 10 Norte 0 -- -- 65
2017-11-01 16:00:00 18.8 8 Norte 17 Norte 0 -- -- 40
2017-11-01 15:00:00 20.6 9 Norte 15 Norte 0 -- -- 34
2017-11-01 14:00:00 20.7 2 Nordeste 6 Nordeste 0 -- -- 31
2017-11-01 13:00:00 18.6 0 Calma 5 Nordeste 0 -- -- 41
2017-11-01 12:00:00 14.4 2 Este 3 Nordeste 0 -- -- 56
2017-11-01 11:00:00 7.2 0 Calma 3 Sur 0 -- -- 77
2017-11-01 10:00:00 2.7 0 Calma 4 Sudoeste 0 -- -- 93
2017-11-01 09:00:00 3.1 0 Calma 12 Sur 0 -- -- 88
2017-11-01 08:00:00 3 3 Sur 13 Sudoeste 0 -- -- 87
2017-11-01 07:00:00 1.3 2 Este 6 Sur 0 -- -- 99
2017-11-01 06:00:00 1.5 0 Calma 4 Noroeste 0 -- -- 97
2017-11-01 05:00:00 1.8 2 Noroeste 6 Sudoeste 0 -- -- 97
2017-11-01 04:00:00 1.8 2 Norte 7 Sur 0 -- -- 98
2017-11-01 03:00:00 1.3 0 Calma 6 Sur 0 -- -- 97
2017-11-01 02:00:00 1.2 0 Calma 6 Oeste 0 -- -- 97
2017-11-01 01:00:00 0.9 2 Sudoeste 6 Sudoeste 0 -- -- 95
2017-11-01 00:00:00 1.2 2 Oeste 6 Sur 0 -- -- 92
2017-10-31 23:00:00 1.9 0 Calma 6 Sudoeste 0 -- -- 90
2017-10-31 22:00:00 2.7 0 Calma 5 Sudoeste 0 -- -- 89
2017-10-31 21:00:00 3.6 0 Calma 8 Sudoeste 0 -- -- 87
2017-10-31 20:00:00 4.6 3 Sudoeste 12 Sudoeste 0 -- -- 84
2017-10-31 19:00:00 5.8 5 Sudoeste 15 Sudoeste 0 -- -- 78
2017-10-31 18:00:00 6.4 5 Sudoeste 14 Sudoeste 0 -- -- 75
2017-10-31 17:00:00 8.4 4 Sudoeste 8 Sudoeste 0 -- -- 73
2017-10-31 16:00:00 13.6 2 Sudoeste 15 Norte 0 -- -- 58
2017-10-31 15:00:00 14.9 9 Norte 18 Norte 0 -- -- 49
2017-10-31 14:00:00 14.7 8 Norte 18 Norte 0 -- -- 44
2017-10-31 13:00:00 13.4 8 Norte 14 Norte 0 -- -- 43
2017-10-31 12:00:00 11.1 4 Nordeste 6 Nordeste 0 -- -- 44
2017-10-31 11:00:00 4 0 Calma 2 Sudeste 0 -- -- 80
2017-10-31 10:00:00 0.3 0 Calma 3 Este 0 -- -- 95
2017-10-31 09:00:00 0.6 0 Calma 20 Sudoeste 0 -- -- 92
2017-10-31 08:00:00 -0.1 4 Sur 10 Sudoeste 0 -- -- 96
2017-10-31 07:00:00 0.8 2 Sudoeste 12 Sudoeste 0 -- -- 94
2017-10-31 06:00:00 1.7 4 Sur 14 Sudoeste 0 -- -- 94
2017-10-31 05:00:00 2.2 5 Sudoeste 13 Sur 0 -- -- 94
2017-10-31 04:00:00 3.2 6 Sudoeste 15 Sudoeste 0 -- -- 93
2017-10-31 03:00:00 4.3 6 Sudoeste 14 Sudoeste 0 -- -- 92
2017-10-31 02:00:00 6.3 3 Sudoeste 14 Sur 0 -- -- 90
2017-10-31 01:00:00 -- 0 Calma 8 Nordeste 0 -- -- --
2017-10-31 00:00:00 8.2 3 Nordeste 7 Norte 0 -- -- 92
2017-10-30 23:00:00 8.5 2 Norte 8 Norte 0 -- -- 90
2017-10-30 22:00:00 8.8 3 Nordeste 6 Norte 0 -- -- 90
2017-10-30 21:00:00 9 3 Nordeste 10 Nordeste 0 -- -- 88
2017-10-30 20:00:00 9.6 5 Nordeste 12 Nordeste 0 -- -- 87
2017-10-30 19:00:00 10.1 4 Nordeste 12 Nordeste 0 -- -- 82
2017-10-30 18:00:00 10.7 6 Nordeste 17 Norte 0 -- -- 82
2017-10-30 17:00:00 11.8 6 Norte 21 Norte 0 -- -- 77
2017-10-30 16:00:00 12.8 9 Norte 22 Norte 0 -- -- 71
2017-10-30 15:00:00 13.6 12 Norte 24 Norte 0 -- -- 66
2017-10-30 14:00:00 15.1 14 Norte 24 Norte 0 -- -- 61
2017-10-30 13:00:00 15.1 7 Norte 14 Nordeste 0 -- -- 57
2017-10-30 12:00:00 12.8 5 Nordeste 13 Norte 0 -- -- 65
2017-10-30 11:00:00 12.4 5 Nordeste 11 Sudoeste 0 -- -- 67
2017-10-30 10:00:00 9 0 Calma 6 Norte 0 -- -- 79
2017-10-30 09:00:00 7.4 2 Nordeste 4 Nordeste 0 -- -- 89
2017-10-30 08:00:00 6 2 Sudeste 6 Sudoeste 0 -- -- 90
2017-10-30 07:00:00 5.7 0 Calma 13 Sudoeste 0 -- -- 88
2017-10-30 06:00:00 7.2 4 Sur 11 Sudoeste 0 -- -- 83
2017-10-30 05:00:00 7.2 3 Sudoeste 13 Sudoeste 0 -- -- 82
2017-10-30 04:00:00 6.8 0 Calma 9 Sudoeste 0 -- -- 85
2017-10-30 03:00:00 8.2 4 Sur 18 Sudoeste 0 -- -- 79
2017-10-30 02:00:00 9.2 10 Sudoeste 20 Sudoeste 0 -- -- 74
2017-10-30 01:00:00 9.2 11 Sudoeste 22 Sudoeste 0 -- -- 75
2017-10-30 00:00:00 9.3 13 Sudoeste 22 Sudoeste 0 -- -- 78
2017-10-29 23:00:00 7.8 6 Sudoeste 9 Sudoeste 0 -- -- 88
2017-10-29 22:00:00 8.5 2 Nordeste 5 Nordeste 0 -- -- 86
2017-10-29 21:00:00 8.9 0 Calma 3 Este 0 -- -- 88
2017-10-29 20:00:00 8.6 0 Calma 4 Oeste 0 -- -- 87
2017-10-29 19:00:00 7.2 0 Calma 4 Noroeste 0 -- -- 89
2017-10-29 18:00:00 8.1 0 Calma 5 Sudoeste 0 -- -- 83
2017-10-29 17:00:00 10.4 2 Sur 9 Nordeste 0 -- -- 73
2017-10-29 16:00:00 14 7 Norte 19 Norte 0 -- -- 59
2017-10-29 15:00:00 14.6 10 Nordeste 20 Norte 0 -- -- 55
2017-10-29 14:00:00 14.6 11 Norte 21 Norte 0 -- -- 47
2017-10-29 13:00:00 14.2 10 Norte 21 Norte 0 -- -- 45
2017-10-29 12:00:00 12.5 2 Este 14 Norte 0 -- -- 43
2017-10-29 11:00:00 6.2 0 Calma 3 Sudeste 0 -- -- 70
2017-10-29 10:00:00 0.9 0 Calma 5 Sudoeste 0 -- -- 91
2017-10-29 09:00:00 0.7 4 Sudoeste 8 Sudoeste 0 -- -- 89
2017-10-29 08:00:00 1.2 3 Oeste 9 Sudoeste 0 -- -- 88
2017-10-29 07:00:00 1.2 3 Sudoeste 6 Sudoeste 0 -- -- 90
2017-10-29 06:00:00 3.1 0 Calma 18 Sudoeste 0 -- -- 82
2017-10-29 05:00:00 4.9 14 Sudoeste 26 Sudoeste 0 -- -- 75
2017-10-29 04:00:00 5 15 Sudoeste 23 Sudoeste 0 -- -- 82
2017-10-29 03:00:00 4.8 13 Sudoeste 16 Sudoeste 0 -- -- 91
2017-10-29 02:00:00 5.5 10 Sudoeste 15 Sudoeste 0 -- -- 93
2017-10-29 01:00:00 7.1 0 Calma 6 Nordeste 0 -- -- 95
2017-10-29 00:00:00 7.4 4 Sudoeste 9 Sur 0 -- -- 92
2017-10-28 23:00:00 9.9 0 Calma 4 Sudoeste 0 -- -- 86
2017-10-28 22:00:00 11 0 Calma 5 Este 0 -- -- 84
2017-10-28 21:00:00 11.4 3 Nordeste 6 Nordeste 0 -- -- 80
2017-10-28 20:00:00 11.8 0 Calma 8 Norte 0 -- -- 82
2017-10-28 19:00:00 12 3 Nordeste 13 Nordeste 0 -- -- 81
2017-10-28 18:00:00 12.4 6 Norte 19 Norte 0 -- -- 78
2017-10-28 17:00:00 14.4 9 Norte 25 Nordeste 0 -- -- 70
2017-10-28 16:00:00 15.5 13 Norte 26 Norte 0 -- -- 66
2017-10-28 15:00:00 16.1 14 Norte 22 Norte 0 -- -- 62
2017-10-28 14:00:00 16.2 10 Norte 21 Norte 0 -- -- 62
2017-10-28 13:00:00 15.3 9 Norte 18 Norte 0 -- -- 68
2017-10-28 12:00:00 11 3 Sur 5 Sur 0 -- -- 84
2017-10-28 11:00:00 7.3 0 Calma 4 Oeste 0 -- -- 98
2017-10-28 10:00:00 7.6 2 Noroeste 8 Sudoeste 0 -- -- 96
2017-10-28 09:00:00 8.7 5 Sur 8 Sudoeste 0 -- -- 95
2017-10-28 08:00:00 10.5 2 Nordeste 3 Norte 0 -- -- 96
2017-10-28 07:00:00 10.6 2 Sur 3 Oeste 0 -- -- 98
2017-10-28 06:00:00 10.3 3 Sur 5 Sur 0 -- -- 97
2017-10-28 05:00:00 10.9 0 Calma 6 Nordeste 0 -- -- 94
2017-10-28 04:00:00 11.6 3 Nordeste 6 Nordeste 0 -- -- 96
2017-10-28 03:00:00 11.6 0 Calma 4 Oeste 0 -- -- 97
2017-10-28 02:00:00 11.5 0 Calma 5 Nordeste 0 -- -- 97
2017-10-28 01:00:00 11.4 0 Calma 4 Este 0 -- -- 95
2017-10-28 00:00:00 11.8 0 Calma 5 Oeste 0 -- -- 91
2017-10-27 23:00:00 11.6 0 Calma 4 Este 0 -- -- 90
2017-10-27 22:00:00 11.4 0 Calma 5 Oeste 0 -- -- 90
2017-10-27 21:00:00 11.4 0 Calma 2 Sudoeste 0 -- -- 89
2017-10-27 20:00:00 12.5 0 Calma 4 Sur 0 -- -- 83
2017-10-27 19:00:00 14.3 0 Calma 10 Nordeste 0 -- -- 78
2017-10-27 18:00:00 15 3 Nordeste 14 Norte 0 -- -- 72
2017-10-27 17:00:00 15.3 6 Norte 22 Nordeste 0 -- -- 72
2017-10-27 16:00:00 15.6 14 Norte 34 Nordeste 0 -- -- 72
2017-10-27 15:00:00 16.9 16 Norte 30 Norte 0 -- -- 67
2017-10-27 14:00:00 17.8 12 Norte 22 Norte 0 -- -- 64
2017-10-27 13:00:00 16 4 Este 13 Nordeste 0 -- -- 64
2017-10-27 12:00:00 11.7 3 Este 5 Este 0 -- -- 80
2017-10-27 11:00:00 6.8 0 Calma 3 Norte 0 -- -- 94
2017-10-27 10:00:00 6.8 2 Sur 7 Sudoeste 0 -- -- 92
2017-10-27 09:00:00 6.2 2 Sur 8 Sudoeste 0 -- -- 95
2017-10-27 08:00:00 6.2 3 Sur 10 Sudoeste 0 -- -- 93
2017-10-27 07:00:00 6.3 5 Sudoeste 8 Sudoeste 0 -- -- 93
2017-10-27 06:00:00 8 2 Sur 14 Sudoeste 0 -- -- 85
2017-10-27 05:00:00 9.4 10 Sudoeste 16 Sudoeste 0 -- -- 80
2017-10-27 04:00:00 9.5 8 Sur 15 Sudoeste 0 -- -- 80
2017-10-27 03:00:00 9.7 8 Sur 18 Sudoeste 0 -- -- 80
2017-10-27 02:00:00 9.9 8 Sur 15 Sudoeste 0 -- -- 81
2017-10-27 01:00:00 10.1 8 Sur 15 Sur 0 -- -- 82
2017-10-27 00:00:00 9.6 4 Sur 10 Oeste 0 -- -- 86
2017-10-26 23:00:00 10 6 Sudoeste 10 Sudoeste 0 -- -- 85
2017-10-26 22:00:00 12 6 Sudoeste 15 Sudoeste 0 -- -- 79
2017-10-26 21:00:00 12.3 5 Sudoeste 10 Sudoeste 0 -- -- 79
2017-10-26 20:00:00 12.4 3 Sudoeste 8 Sudoeste 0 -- -- 80
2017-10-26 19:00:00 14.6 2 Sur 5 Noroeste 0 -- -- 74
2017-10-26 18:00:00 17.6 2 Sudoeste 10 Sudoeste 0 -- -- 63
2017-10-26 17:00:00 24.5 4 Sudoeste 17 Norte 0 -- -- 43
2017-10-26 16:00:00 26.8 6 Norte 13 Noroeste 0 -- -- 33
2017-10-26 15:00:00 26.2 4 Nordeste 9 Nordeste 0 -- -- 31
2017-10-26 14:00:00 24.1 3 Nordeste 5 Nordeste 0 -- -- 39
2017-10-26 13:00:00 20 0 Calma 3 Sudoeste 0 -- -- 55
2017-10-26 12:00:00 14.7 0 Calma 4 Sur 0 -- -- 62
2017-10-26 11:00:00 8.7 2 Norte 9 Sudeste 0 -- -- 81
2017-10-26 10:00:00 9.4 4 Sudoeste 15 Sudoeste 0 -- -- 74
2017-10-26 09:00:00 9.2 6 Sur 17 Sudoeste 0 -- -- 73
2017-10-26 08:00:00 8.1 8 Sur 14 Sur 0 -- -- 79
2017-10-26 07:00:00 9 9 Sur 17 Sudoeste 0 -- -- 76
2017-10-26 06:00:00 9.4 12 Sur 17 Sur 0 -- -- 76
2017-10-26 05:00:00 9.1 12 Sur 17 Sudoeste 0 -- -- 80
2017-10-26 04:00:00 9.8 12 Sur 20 Sudoeste 0 -- -- 78
2017-10-26 03:00:00 10.1 13 Sur 21 Sudoeste 0 -- -- 79
2017-10-26 02:00:00 10.5 11 Sudoeste 23 Sudoeste 0 -- -- 80
2017-10-26 01:00:00 10.6 12 Sudoeste 18 Sudoeste 0 -- -- 82
2017-10-26 00:00:00 10.9 9 Sudoeste 17 Sudoeste 0 -- -- 83